createdAt,value
2023-05-20T00:00:41.030Z,71.22
2023-05-20T00:01:42.992Z,71.41
2023-05-20T00:02:40.023Z,71.45
2023-05-20T00:03:40.274Z,71.57
2023-05-20T00:04:39.990Z,71.71
2023-05-20T00:05:40.532Z,71.90
2023-05-20T00:06:40.126Z,71.87
2023-05-20T00:07:39.613Z,71.90
2023-05-20T00:08:40.445Z,72.03
2023-05-20T00:09:40.037Z,72.14
2023-05-20T00:10:39.980Z,72.07
2023-05-20T00:11:39.708Z,72.30
2023-05-20T00:12:54.257Z,72.30
2023-05-20T00:13:39.775Z,72.31
2023-05-20T00:14:40.365Z,72.49
2023-05-20T00:15:40.027Z,72.69
2023-05-20T00:16:40.010Z,72.73
2023-05-20T00:17:39.521Z,72.69
2023-05-20T00:18:39.901Z,72.82
2023-05-20T00:19:40.723Z,72.81
2023-05-20T00:20:40.146Z,72.94
2023-05-20T00:21:39.690Z,72.98
2023-05-20T00:22:40.012Z,72.85
2023-05-20T00:23:39.486Z,72.80
2023-05-20T00:24:40.228Z,72.83
2023-05-20T00:25:40.378Z,73
2023-05-20T00:26:40.034Z,73.16
2023-05-20T00:27:39.677Z,73.23
2023-05-20T00:28:40.163Z,73.30
2023-05-20T00:29:39.862Z,73.38
2023-05-20T00:30:40.690Z,73.39
2023-05-20T00:31:40.297Z,73.38
2023-05-20T00:32:40.080Z,73.26
2023-05-20T00:33:39.701Z,73.40
2023-05-20T00:34:40.102Z,73.52
2023-05-20T00:35:40.081Z,73.53
2023-05-20T00:36:39.919Z,73.64
2023-05-20T00:37:40.322Z,73.70
2023-05-20T00:38:39.611Z,73.68
2023-05-20T00:39:39.825Z,73.71
2023-05-20T00:40:40.529Z,73.75
2023-05-20T00:41:40.648Z,73.81
2023-05-20T00:42:40.256Z,73.87
2023-05-20T00:43:39.776Z,73.87
2023-05-20T00:44:40.008Z,73.92
2023-05-20T00:45:39.825Z,73.95
2023-05-20T00:46:40.756Z,73.89
2023-05-20T00:47:41.143Z,74.06
2023-05-20T00:48:40.625Z,74.28
2023-05-20T00:49:40.363Z,74.39
2023-05-20T00:50:40.081Z,74.50
2023-05-20T00:51:40.010Z,74.50
2023-05-20T00:52:39.692Z,74.36
2023-05-20T00:53:40.265Z,74.45
2023-05-20T00:54:39.672Z,74.49
2023-05-20T00:55:40.084Z,74.61
2023-05-20T00:56:40.109Z,74.64
2023-05-20T00:57:39.577Z,74.51
2023-05-20T00:58:39.909Z,74.47
2023-05-20T00:59:41.039Z,74.38
2023-05-20T01:01:12.702Z,74.27
2023-05-20T01:01:45.367Z,74.40
2023-05-20T01:02:40.132Z,74.47
2023-05-20T01:03:40.419Z,74.38
2023-05-20T01:04:39.721Z,74.36
2023-05-20T01:05:42.282Z,74.30
2023-05-20T01:06:39.787Z,74.39
2023-05-20T01:07:39.813Z,74.31
2023-05-20T01:08:39.990Z,74.43
2023-05-20T01:09:39.494Z,74.52
2023-05-20T01:10:40.134Z,74.68
2023-05-20T01:11:39.653Z,74.92
2023-05-20T01:12:40.062Z,75.07
2023-05-20T01:13:39.779Z,75.17
2023-05-20T01:14:39.957Z,75.26
2023-05-20T01:15:40.369Z,75.30
2023-05-20T01:16:40.191Z,75.28
2023-05-20T01:17:39.864Z,75.29
2023-05-20T01:18:39.423Z,75.27
2023-05-20T01:19:39.979Z,75.18
2023-05-20T01:20:39.856Z,75.11
2023-05-20T01:21:40.339Z,75.22
2023-05-20T01:22:39.745Z,75.20
2023-05-20T01:23:40.173Z,75.25
2023-05-20T01:24:39.599Z,75.38
2023-05-20T01:25:39.989Z,75.29
2023-05-20T01:26:39.396Z,75.55
2023-05-20T01:27:39.891Z,75.61
2023-05-20T01:28:40.342Z,75.78
2023-05-20T01:29:39.972Z,76.02
2023-05-20T01:30:40.523Z,75.90
2023-05-20T01:31:39.913Z,75.78
2023-05-20T01:32:40.404Z,75.85
2023-05-20T01:33:39.677Z,75.77
2023-05-20T01:34:39.896Z,75.62
2023-05-20T01:35:40.480Z,75.66
2023-05-20T01:36:39.930Z,75.66
2023-05-20T01:37:40.267Z,75.85
2023-05-20T01:38:39.600Z,76.02
2023-05-20T01:39:40.226Z,75.87
2023-05-20T01:40:39.869Z,75.81
2023-05-20T01:41:40.210Z,75.99
2023-05-20T01:42:39.767Z,76.10
2023-05-20T01:43:40.356Z,76.15
2023-05-20T01:44:40.054Z,76.08
2023-05-20T01:45:39.875Z,75.96
2023-05-20T01:46:40.763Z,75.97
2023-05-20T01:47:40.628Z,76.10
2023-05-20T01:48:40.092Z,76.06
2023-05-20T01:49:39.811Z,76.21
2023-05-20T01:50:40.507Z,76.11
2023-05-20T01:51:39.801Z,76.07
2023-05-20T01:52:40.454Z,76.10
2023-05-20T01:53:40.027Z,76.25
2023-05-20T01:54:39.499Z,76.37
2023-05-20T01:55:39.979Z,76.47
2023-05-20T01:56:39.549Z,76.61
2023-05-20T01:57:39.823Z,76.88
2023-05-20T01:58:40.184Z,76.98
2023-05-20T01:59:40.097Z,76.95
2023-05-20T02:00:41.124Z,77.01
2023-05-20T02:01:40.115Z,77.12
2023-05-20T02:02:40.419Z,77.16
2023-05-20T02:03:40.034Z,77.16
2023-05-20T02:04:40.059Z,77.19
2023-05-20T02:05:39.947Z,77.12
2023-05-20T02:06:39.519Z,77.10
2023-05-20T02:07:39.897Z,76.90
2023-05-20T02:08:40.508Z,76.88
2023-05-20T02:09:40.045Z,76.81
2023-05-20T02:10:39.600Z,76.91
2023-05-20T02:11:39.841Z,76.91
2023-05-20T02:12:40.095Z,77.04
2023-05-20T02:13:39.518Z,77.05
2023-05-20T02:14:39.961Z,77.07
2023-05-20T02:15:39.834Z,77.13
2023-05-20T02:16:40.646Z,77.19
2023-05-20T02:17:40.192Z,77.26
2023-05-20T02:18:39.967Z,77.25
2023-05-20T02:19:40.909Z,77.27
2023-05-20T02:20:40.518Z,77.30
2023-05-20T02:21:40.057Z,77.30
2023-05-20T02:22:39.557Z,77.37
2023-05-20T02:23:39.990Z,77.45
2023-05-20T02:24:39.846Z,77.47
2023-05-20T02:25:40.439Z,77.48
2023-05-20T02:26:40.120Z,77.58
2023-05-20T02:27:39.755Z,77.51
2023-05-20T02:28:40.226Z,77.52
2023-05-20T02:29:39.747Z,77.59
2023-05-20T02:30:40.655Z,77.61
2023-05-20T02:31:40.188Z,77.53
2023-05-20T02:32:39.832Z,77.61
2023-05-20T02:33:40.520Z,77.67
2023-05-20T02:34:40.533Z,77.68
2023-05-20T02:35:40.260Z,77.67
2023-05-20T02:36:39.848Z,77.80
2023-05-20T02:37:40.250Z,77.90
2023-05-20T02:38:40.092Z,77.94
2023-05-20T02:39:40.592Z,77.99
2023-05-20T02:40:40.946Z,77.87
2023-05-20T02:41:40.567Z,77.72
2023-05-20T02:42:40.197Z,77.81
2023-05-20T02:43:39.569Z,77.87
2023-05-20T02:44:40.080Z,77.83
2023-05-20T02:45:40.183Z,77.78
2023-05-20T02:46:40.210Z,77.74
2023-05-20T02:47:39.919Z,77.72
2023-05-20T02:48:40.461Z,77.68
2023-05-20T02:49:40.185Z,77.73
2023-05-20T02:50:39.857Z,77.71
2023-05-20T02:51:40.497Z,77.73
2023-05-20T02:52:40.069Z,78.00
2023-05-20T02:53:39.792Z,78.22
2023-05-20T02:54:40.391Z,78.32
2023-05-20T02:55:40.135Z,78.27
2023-05-20T02:56:39.905Z,78.20
2023-05-20T02:57:40.354Z,78.18
2023-05-20T02:58:40.003Z,78.20
2023-05-20T02:59:39.705Z,78.39
2023-05-20T03:00:41.574Z,78.29
2023-05-20T03:01:40.277Z,78.33
2023-05-20T03:02:39.899Z,78.43
2023-05-20T03:03:40.126Z,78.48
2023-05-20T03:04:39.831Z,78.47
2023-05-20T03:05:40.784Z,78.52
2023-05-20T03:06:40.333Z,78.48
2023-05-20T03:07:48.035Z,78.45
2023-05-20T03:08:39.889Z,78.41
2023-05-20T03:09:40.549Z,78.45
2023-05-20T03:10:40.065Z,78.46
2023-05-20T03:11:39.753Z,78.49
2023-05-20T03:12:39.979Z,78.49
2023-05-20T03:13:39.918Z,78.40
2023-05-20T03:14:40.909Z,78.41
2023-05-20T03:15:40.427Z,78.36
2023-05-20T03:16:40.037Z,78.34
2023-05-20T03:17:39.574Z,78.37
2023-05-20T03:18:40.037Z,78.34
2023-05-20T03:19:39.545Z,78.39
2023-05-20T03:20:40.139Z,78.50
2023-05-20T03:21:39.749Z,78.56
2023-05-20T03:22:40.043Z,78.53
2023-05-20T03:23:39.303Z,78.54
2023-05-20T03:24:39.584Z,78.59
2023-05-20T03:25:40.107Z,78.70
2023-05-20T03:26:39.563Z,78.67
2023-05-20T03:27:39.914Z,78.76
2023-05-20T03:28:40.089Z,78.80
2023-05-20T03:29:39.582Z,78.87
2023-05-20T03:30:40.393Z,78.95
2023-05-20T03:31:39.829Z,78.85
2023-05-20T03:32:40.301Z,78.82
2023-05-20T03:33:39.974Z,78.90
2023-05-20T03:34:40.378Z,78.95
2023-05-20T03:35:39.866Z,78.93
2023-05-20T03:36:40.049Z,78.91
2023-05-20T03:37:39.722Z,79.00
2023-05-20T03:38:39.961Z,79.00
2023-05-20T03:39:39.725Z,78.98
2023-05-20T03:40:40.629Z,78.94
2023-05-20T03:41:40.110Z,78.91
2023-05-20T03:42:39.608Z,79.05
2023-05-20T03:43:39.948Z,79.19
2023-05-20T03:44:40.511Z,79.38
2023-05-20T03:46:12.439Z,79.54
2023-05-20T03:46:45.425Z,79.56
2023-05-20T03:47:40.343Z,79.45
2023-05-20T03:48:39.919Z,79.42
2023-05-20T03:49:40.302Z,79.62
2023-05-20T03:50:39.950Z,79.56
2023-05-20T03:51:39.827Z,79.43
2023-05-20T03:52:40.679Z,79.33
2023-05-20T03:53:40.537Z,79.34
2023-05-20T03:54:40.350Z,79.33
2023-05-20T03:55:40.195Z,79.33
2023-05-20T03:56:40.012Z,79.32
2023-05-20T03:57:39.842Z,79.45
2023-05-20T03:58:40.472Z,79.43
2023-05-20T03:59:40.220Z,79.36
2023-05-20T04:00:41.268Z,79.47
2023-05-20T04:01:40.019Z,79.54
2023-05-20T04:02:39.945Z,79.51
2023-05-20T04:03:40.043Z,79.50
2023-05-20T04:04:40.306Z,79.58
2023-05-20T04:05:40.466Z,79.55
2023-05-20T04:06:40.439Z,79.56
2023-05-20T04:07:39.898Z,79.56
2023-05-20T04:08:40.597Z,79.61
2023-05-20T04:09:40.337Z,79.60
2023-05-20T04:10:40.315Z,79.55
2023-05-20T04:11:39.750Z,79.47
2023-05-20T04:12:40.356Z,79.47
2023-05-20T04:13:39.812Z,79.52
2023-05-20T04:14:40.522Z,79.59
2023-05-20T04:15:40.441Z,79.55
2023-05-20T04:16:40.164Z,79.56
2023-05-20T04:17:39.986Z,79.65
2023-05-20T04:18:40.018Z,79.87
2023-05-20T04:19:40.147Z,80.04
2023-05-20T04:20:40.367Z,80.03
2023-05-20T04:21:39.774Z,80.15
2023-05-20T04:22:40.260Z,80.19
2023-05-20T04:23:40.019Z,80.13
2023-05-20T04:24:39.698Z,79.98
2023-05-20T04:25:40.787Z,79.92
2023-05-20T04:26:40.409Z,79.92
2023-05-20T04:27:40.058Z,80.14
2023-05-20T04:28:39.955Z,80.22
2023-05-20T04:29:40.292Z,80.15
2023-05-20T04:30:40.103Z,80.09
2023-05-20T04:31:39.792Z,80.02
2023-05-20T04:32:40.619Z,79.95
2023-05-20T04:33:39.986Z,80.02
2023-05-20T04:34:40.042Z,80.13
2023-05-20T04:35:39.907Z,80.25
2023-05-20T04:36:40.479Z,80.10
2023-05-20T04:37:39.959Z,79.98
2023-05-20T04:38:39.792Z,80.02
2023-05-20T04:39:40.464Z,79.97
2023-05-20T04:40:40.314Z,79.90
2023-05-20T04:41:40.378Z,79.89
2023-05-20T04:42:40.136Z,79.98
2023-05-20T04:43:39.924Z,80.00
2023-05-20T04:44:41.757Z,80.10
2023-05-20T04:45:40.111Z,80.05
2023-05-20T04:46:39.915Z,80.16
2023-05-20T04:47:41.033Z,80.26
2023-05-20T04:48:40.250Z,80.26
2023-05-20T04:49:39.880Z,80.19
2023-05-20T04:50:40.798Z,80.29
2023-05-20T04:51:40.311Z,80.33
2023-05-20T04:52:40.167Z,80.34
2023-05-20T04:53:39.924Z,80.39
2023-05-20T04:54:40.767Z,80.34
2023-05-20T04:55:41.031Z,80.36
2023-05-20T04:56:39.910Z,80.45
2023-05-20T04:57:40.661Z,80.41
2023-05-20T04:58:40.101Z,80.40
2023-05-20T04:59:39.959Z,80.44
2023-05-20T05:00:41.521Z,80.28
2023-05-20T05:01:40.536Z,80.27
2023-05-20T05:02:40.221Z,80.33
2023-05-20T05:03:40.155Z,80.39
2023-05-20T05:04:40.160Z,80.44
2023-05-20T05:05:40.397Z,80.56
2023-05-20T05:06:40.127Z,80.62
2023-05-20T05:07:39.837Z,80.61
2023-05-20T05:08:40.201Z,80.65
2023-05-20T05:09:40.250Z,80.66
2023-05-20T05:10:40.249Z,80.63
2023-05-20T05:11:39.769Z,80.63
2023-05-20T05:12:40.923Z,80.80
2023-05-20T05:13:41.045Z,80.78
2023-05-20T05:14:40.167Z,80.77
2023-05-20T05:15:40.240Z,80.85
2023-05-20T05:16:40.543Z,80.85
2023-05-20T05:17:40.690Z,80.91
2023-05-20T05:18:40.558Z,80.92
2023-05-20T05:19:40.697Z,80.91
2023-05-20T05:20:40.754Z,80.86
2023-05-20T05:21:40.874Z,80.87
2023-05-20T05:22:45.520Z,80.74
2023-05-20T05:23:40.091Z,80.83
2023-05-20T05:24:40.335Z,80.90
2023-05-20T05:25:40.175Z,80.75
2023-05-20T05:26:40.061Z,80.49
2023-05-20T05:27:39.975Z,80.30
2023-05-20T05:28:40.712Z,80.01
2023-05-20T05:29:40.847Z,79.75
2023-05-20T05:30:41.128Z,79.69
2023-05-20T05:31:40.041Z,79.59
2023-05-20T05:32:40.491Z,79.64
2023-05-20T05:33:40.639Z,79.69
2023-05-20T05:34:40.126Z,79.41
2023-05-20T05:35:39.941Z,79.21
2023-05-20T05:36:40.872Z,79.14
2023-05-20T05:37:40.533Z,79.08
2023-05-20T05:38:40.406Z,79.02
2023-05-20T05:39:40.383Z,78.98
2023-05-20T05:40:40.404Z,78.97
2023-05-20T05:41:40.584Z,79.20
2023-05-20T05:42:40.285Z,79.73
2023-05-20T05:43:40.438Z,80.13
2023-05-20T05:44:54.675Z,80.41
2023-05-20T05:45:40.729Z,80.24
2023-05-20T05:46:40.883Z,80.23
2023-05-20T05:47:41.005Z,79.94
2023-05-20T05:48:40.267Z,79.81
2023-05-20T05:49:39.893Z,79.94
2023-05-20T05:50:40.834Z,80.47
2023-05-20T05:51:40.636Z,80.69
2023-05-20T05:52:40.130Z,80.85
2023-05-20T05:53:40.102Z,80.65
2023-05-20T05:54:40.304Z,80.56
2023-05-20T05:55:40.572Z,80.21
2023-05-20T05:56:40.607Z,79.98
2023-05-20T05:57:40.648Z,79.51
2023-05-20T05:58:40.883Z,79.27
2023-05-20T05:59:40.445Z,79.59
2023-05-20T06:01:00.217Z,79.61
2023-05-20T06:01:39.818Z,79.81
2023-05-20T06:02:41.219Z,79.55
2023-05-20T06:03:40.578Z,79.22
2023-05-20T06:04:40.667Z,79.00
2023-05-20T06:05:44.060Z,79.05
2023-05-20T06:06:40.045Z,78.93
2023-05-20T06:07:40.006Z,78.87
2023-05-20T06:08:40.373Z,78.98
2023-05-20T06:09:40.031Z,78.61
2023-05-20T06:10:40.266Z,78.59
2023-05-20T06:11:40.153Z,78.58
2023-05-20T06:12:40.065Z,78.53
2023-05-20T06:13:40.172Z,78.47
2023-05-20T06:14:40.372Z,78.36
2023-05-20T06:15:40.581Z,78.11
2023-05-20T06:16:40.656Z,77.97
2023-05-20T06:17:40.592Z,77.94
2023-05-20T06:18:40.265Z,78.11
2023-05-20T06:19:40.701Z,78.14
2023-05-20T06:20:40.624Z,77.91
2023-05-20T06:21:40.791Z,77.88
2023-05-20T06:22:40.625Z,78.02
2023-05-20T06:23:40.187Z,77.94
2023-05-20T06:24:41.272Z,77.88
2023-05-20T06:25:41.006Z,77.63
2023-05-20T06:26:40.838Z,77.42
2023-05-20T06:27:41.229Z,77.20
2023-05-20T06:28:40.874Z,77.00
2023-05-20T06:29:42.451Z,76.85
2023-05-20T06:30:40.671Z,77.01
2023-05-20T06:31:40.552Z,77.08
2023-05-20T06:32:40.589Z,76.98
2023-05-20T06:33:40.627Z,76.93
2023-05-20T06:34:40.123Z,76.95
2023-05-20T06:35:40.181Z,76.74
2023-05-20T06:36:40.441Z,76.89
2023-05-20T06:37:40.336Z,76.65
2023-05-20T06:38:40.189Z,76.61
2023-05-20T06:39:39.948Z,76.84
2023-05-20T06:40:41.007Z,77.01
2023-05-20T06:41:39.982Z,77.23
2023-05-20T06:42:40.023Z,77.25
2023-05-20T06:43:40.090Z,77.14
2023-05-20T06:44:40.028Z,76.69
2023-05-20T06:45:40.105Z,76.37
2023-05-20T06:46:40.141Z,76.39
2023-05-20T06:47:40.385Z,76.16
2023-05-20T06:48:40.085Z,76.01
2023-05-20T06:49:40.265Z,76.06
2023-05-20T06:50:40.059Z,76.19
2023-05-20T06:51:40.170Z,76.29
2023-05-20T06:52:39.907Z,76.39
2023-05-20T06:53:40.510Z,76.63
2023-05-20T06:54:40.153Z,76.48
2023-05-20T06:55:40.299Z,76.35
2023-05-20T06:56:40.545Z,76.48
2023-05-20T06:57:40.362Z,76.26
2023-05-20T06:58:40.770Z,76.40
2023-05-20T06:59:40.975Z,76.55
2023-05-20T07:00:41.991Z,76.69
2023-05-20T07:01:40.611Z,76.71
2023-05-20T07:02:40.698Z,76.84
2023-05-20T07:03:40.749Z,76.67
2023-05-20T07:04:40.668Z,76.68
2023-05-20T07:05:40.924Z,76.51
2023-05-20T07:06:40.855Z,76.27
2023-05-20T07:07:45.707Z,76.44
2023-05-20T07:08:40.943Z,76.74
2023-05-20T07:09:45.997Z,76.78
2023-05-20T07:10:40.430Z,76.84
2023-05-20T07:11:45.430Z,77.01
2023-05-20T07:12:40.160Z,77.10
2023-05-20T07:13:39.932Z,77.25
2023-05-20T07:14:40.734Z,76.98
2023-05-20T07:15:46.023Z,76.82
2023-05-20T07:16:40.513Z,76.55
2023-05-20T07:17:40.568Z,76.75
2023-05-20T07:18:40.557Z,76.64
2023-05-20T07:19:40.289Z,76.71
2023-05-20T07:20:40.228Z,76.43
2023-05-20T07:21:48.113Z,76.46
2023-05-20T07:22:40.056Z,76.33
2023-05-20T07:23:39.777Z,76.15
2023-05-20T07:24:40.486Z,76.33
2023-05-20T07:25:48.611Z,76.49
2023-05-20T07:26:40.276Z,76.51
2023-05-20T07:27:39.970Z,76.55
2023-05-20T07:28:41.212Z,76.45
2023-05-20T07:29:40.083Z,76.19
2023-05-20T07:30:41.003Z,76.14
2023-05-20T07:31:40.373Z,76.20
2023-05-20T07:32:40.625Z,75.48
2023-05-20T07:33:40.467Z,75.13
2023-05-20T07:34:41.048Z,74.89
2023-05-20T07:35:40.313Z,75.09
2023-05-20T07:36:39.879Z,75.67
2023-05-20T07:37:40.494Z,75.33
2023-05-20T07:38:41.282Z,74.91
2023-05-20T07:39:40.126Z,74.66
2023-05-20T07:40:40.336Z,74.23
2023-05-20T07:41:40.165Z,74.16
2023-05-20T07:42:39.905Z,74.18
2023-05-20T07:43:40.574Z,74.28
2023-05-20T07:44:40.476Z,74.34
2023-05-20T07:45:40.919Z,74.23
2023-05-20T07:46:40.794Z,74.14
2023-05-20T07:47:41.029Z,74.24
2023-05-20T07:48:40.189Z,74.15
2023-05-20T07:49:40.245Z,73.62
2023-05-20T07:50:40.603Z,73.45
2023-05-20T07:51:40.560Z,73.48
2023-05-20T07:52:55.179Z,73.36
2023-05-20T07:54:00.204Z,73.43
2023-05-20T07:54:40.028Z,73.69
2023-05-20T07:56:02.479Z,73.93
2023-05-20T07:56:40.778Z,73.74
2023-05-20T07:58:03.332Z,73.77
2023-05-20T07:58:41.072Z,73.85
2023-05-20T07:59:40.138Z,73.93
2023-05-20T08:00:41.004Z,73.98
2023-05-20T08:01:40.026Z,74.21
2023-05-20T08:02:40.296Z,74.33
2023-05-20T08:03:40.351Z,74.32
2023-05-20T08:04:40.298Z,74.35
2023-05-20T08:05:40.167Z,74.34
2023-05-20T08:06:40.032Z,74.35
2023-05-20T08:07:40.078Z,74.30
2023-05-20T08:08:40.058Z,74.25
2023-05-20T08:09:40.110Z,74.24
2023-05-20T08:10:40.593Z,74.16
2023-05-20T08:11:40.342Z,74.04
2023-05-20T08:12:40.694Z,74.08
2023-05-20T08:13:40.342Z,74.08
2023-05-20T08:14:40.410Z,74.12
2023-05-20T08:15:40.571Z,74.19
2023-05-20T08:16:40.531Z,74.02
2023-05-20T08:17:40.330Z,73.95
2023-05-20T08:18:40.082Z,73.84
2023-05-20T08:19:40.361Z,73.87
2023-05-20T08:20:40.299Z,73.86
2023-05-20T08:21:40.251Z,73.78
2023-05-20T08:22:40.204Z,73.72
2023-05-20T08:23:40.639Z,73.66
2023-05-20T08:24:40.772Z,73.29
2023-05-20T08:25:59.713Z,72.99
2023-05-20T08:26:40.856Z,72.80
2023-05-20T08:27:40.735Z,72.50
2023-05-20T08:28:40.801Z,72.41
2023-05-20T08:30:12.438Z,72.52
2023-05-20T08:30:45.985Z,72.50
2023-05-20T08:31:39.975Z,72.17
2023-05-20T08:32:40.213Z,71.98
2023-05-20T08:33:40.300Z,72.03
2023-05-20T08:34:40.479Z,71.98
2023-05-20T08:35:40.855Z,71.89
2023-05-20T08:36:40.935Z,71.98
2023-05-20T08:38:13.188Z,72.73
2023-05-20T08:38:46.401Z,73.07
2023-05-20T08:39:40.389Z,72.66
2023-05-20T08:40:40.468Z,72.34
2023-05-20T08:41:40.545Z,71.98
2023-05-20T08:42:40.376Z,71.56
2023-05-20T08:43:40.332Z,71.66
2023-05-20T08:44:40.263Z,71.56
2023-05-20T08:45:40.551Z,71.33
2023-05-20T08:46:41.181Z,71.11
2023-05-20T08:47:40.768Z,71.16
2023-05-20T08:48:40.673Z,70.97
2023-05-20T08:49:40.661Z,70.95
2023-05-20T08:50:40.971Z,71.05
2023-05-20T08:51:40.429Z,71.22
2023-05-20T08:52:40.812Z,71.40
2023-05-20T08:53:40.786Z,71.18
2023-05-20T08:54:41.447Z,71.37
2023-05-20T08:55:41.177Z,71.27
2023-05-20T08:56:40.573Z,70.60
2023-05-20T08:57:41.026Z,70.50
2023-05-20T08:58:40.239Z,70.59
2023-05-20T08:59:40.485Z,70.32
2023-05-20T09:00:42.039Z,70.24
2023-05-20T09:01:40.517Z,69.73
2023-05-20T09:02:40.472Z,69.86
2023-05-20T09:03:40.519Z,70.26
2023-05-20T09:04:40.358Z,70.33
2023-05-20T09:05:40.538Z,70.43
2023-05-20T09:06:40.369Z,70.12
2023-05-20T09:07:40.188Z,70.07
2023-05-20T09:08:40.249Z,70.16
2023-05-20T09:09:40.315Z,69.91
2023-05-20T09:10:40.297Z,69.99
2023-05-20T09:11:40.593Z,70.20
2023-05-20T09:12:40.569Z,70.48
2023-05-20T09:13:40.647Z,70.57
2023-05-20T09:14:40.348Z,70
2023-05-20T09:15:40.545Z,70.01
2023-05-20T09:16:41.117Z,70.16
2023-05-20T09:17:40.313Z,69.78
2023-05-20T09:18:40.517Z,69.29
2023-05-20T09:19:40.818Z,68.95
2023-05-20T09:20:40.882Z,69.01
2023-05-20T09:21:40.900Z,69
2023-05-20T09:22:40.808Z,69.36
2023-05-20T09:23:40.882Z,69.20
2023-05-20T09:24:40.943Z,69.04
2023-05-20T09:25:41.336Z,69.32
2023-05-20T09:26:40.286Z,69.45
2023-05-20T09:27:40.550Z,69.07
2023-05-20T09:28:41.096Z,68.64
2023-05-20T09:29:40.448Z,68.76
2023-05-20T09:30:40.783Z,68.83
2023-05-20T09:31:40.789Z,69.18
2023-05-20T09:32:40.870Z,68.97
2023-05-20T09:33:40.820Z,68.98
2023-05-20T09:34:41.032Z,68.99
2023-05-20T09:35:40.720Z,68.94
2023-05-20T09:36:40.587Z,68.66
2023-05-20T09:37:40.805Z,68.80
2023-05-20T09:38:41.083Z,68.95
2023-05-20T09:39:40.727Z,69.04
2023-05-20T09:40:40.877Z,69.12
2023-05-20T09:41:41.066Z,69.32
2023-05-20T09:42:40.368Z,68.79
2023-05-20T09:43:40.554Z,68.61
2023-05-20T09:44:40.707Z,68.72
2023-05-20T09:45:41.227Z,68.89
2023-05-20T09:46:40.782Z,68.98
2023-05-20T09:47:41.351Z,68.83
2023-05-20T09:48:41.536Z,68.25
2023-05-20T09:49:40.680Z,67.76
2023-05-20T09:50:40.839Z,67.86
2023-05-20T09:51:40.965Z,67.85
2023-05-20T09:52:41.004Z,68.03
2023-05-20T09:53:40.494Z,68.08
2023-05-20T09:54:40.762Z,68.45
2023-05-20T09:55:40.913Z,68.21
2023-05-20T09:56:41.162Z,68.27
2023-05-20T09:57:41.153Z,68.22
2023-05-20T09:58:40.349Z,68.16
2023-05-20T09:59:40.437Z,67.97
2023-05-20T10:00:41.566Z,67.65
2023-05-20T10:01:40.765Z,67.61
2023-05-20T10:02:41.051Z,67.95
2023-05-20T10:03:41.910Z,68.11
2023-05-20T10:04:40.536Z,68.26
2023-05-20T10:05:40.729Z,68.25
2023-05-20T10:06:40.780Z,68.04
2023-05-20T10:07:57.556Z,67.95
2023-05-20T10:08:40.823Z,68.01
2023-05-20T10:09:41.290Z,68.24
2023-05-20T10:10:45.703Z,68.18
2023-05-20T10:11:41.279Z,68.22
2023-05-20T10:12:40.649Z,67.79
2023-05-20T10:13:41.113Z,67.67
2023-05-20T10:14:45.886Z,67.40
2023-05-20T10:15:41.432Z,67.31
2023-05-20T10:16:45.942Z,67.32
2023-05-20T10:17:41.467Z,67.29
2023-05-20T10:18:41.142Z,67.22
2023-05-20T10:19:40.732Z,67.12
2023-05-20T10:20:40.658Z,67.31
2023-05-20T10:21:40.701Z,67.10
2023-05-20T10:22:41.750Z,67.05
2023-05-20T10:23:41.908Z,67.01
2023-05-20T10:24:41.856Z,67.20
2023-05-20T10:25:41.735Z,67.24
2023-05-20T10:26:41.072Z,67.12
2023-05-20T10:27:40.459Z,67.01
2023-05-20T10:28:40.585Z,66.99
2023-05-20T10:29:40.438Z,67.04
2023-05-20T10:30:42.533Z,66.95
2023-05-20T10:31:40.688Z,67.32
2023-05-20T10:32:54.898Z,67.45
2023-05-20T10:33:40.348Z,67.56
2023-05-20T10:34:40.506Z,67.74
2023-05-20T10:35:40.585Z,67.76
2023-05-20T10:37:12.426Z,67.97
2023-05-20T10:37:45.408Z,67.97
2023-05-20T10:38:40.616Z,67.82
2023-05-20T10:39:40.715Z,67.80
2023-05-20T10:41:12.866Z,67.48
2023-05-20T10:41:46.015Z,67.31
2023-05-20T10:42:40.193Z,67.58
2023-05-20T10:43:40.346Z,67.54
2023-05-20T10:44:40.447Z,67.33
2023-05-20T10:45:40.755Z,67.11
2023-05-20T10:47:20.582Z,67.12
2023-05-20T10:47:42.650Z,67.27
2023-05-20T10:48:41.728Z,67.70
2023-05-20T10:49:43.669Z,68.04
2023-05-20T10:50:40.888Z,67.95
2023-05-20T10:51:40.878Z,67.95
2023-05-20T10:52:41.136Z,67.77
2023-05-20T10:53:50.204Z,66.87
2023-05-20T10:54:40.545Z,66.63
2023-05-20T10:55:40.929Z,66.80
2023-05-20T10:56:41.160Z,66.47
2023-05-20T10:57:40.544Z,66.25
2023-05-20T10:58:40.974Z,66.47
2023-05-20T10:59:41.578Z,66.69
2023-05-20T11:00:41.814Z,66.75
2023-05-20T11:01:41.126Z,66.65
2023-05-20T11:02:40.624Z,66.70
2023-05-20T11:03:40.882Z,66.46
2023-05-20T11:04:41.016Z,66.36
2023-05-20T11:05:40.119Z,66.98
2023-05-20T11:06:40.417Z,67.08
2023-05-20T11:07:40.499Z,67.52
2023-05-20T11:08:45.408Z,66.82
2023-05-20T11:09:40.286Z,66.79
2023-05-20T11:10:40.837Z,67.10
2023-05-20T11:11:40.751Z,66.94
2023-05-20T11:12:40.577Z,67.02
2023-05-20T11:13:40.411Z,67.01
2023-05-20T11:14:40.539Z,66.82
2023-05-20T11:15:40.554Z,66.71
2023-05-20T11:16:40.814Z,66.31
2023-05-20T11:17:40.747Z,65.91
2023-05-20T11:18:41.014Z,65.91
2023-05-20T11:19:40.426Z,66.06
2023-05-20T11:20:40.656Z,66.17
2023-05-20T11:21:40.746Z,66.03
2023-05-20T11:22:40.702Z,65.73
2023-05-20T11:23:40.814Z,65.94
2023-05-20T11:24:40.874Z,66.03
2023-05-20T11:25:41.205Z,66.12
2023-05-20T11:27:17.196Z,66.41
2023-05-20T11:27:45.613Z,66.59
2023-05-20T11:28:40.645Z,65.58
2023-05-20T11:29:41.127Z,65.34
2023-05-20T11:31:40.598Z,65.39
2023-05-20T11:32:40.968Z,65.56
2023-05-20T11:33:40.410Z,65.53
2023-05-20T11:34:42.895Z,65.58
2023-05-20T11:35:41.023Z,65.65
2023-05-20T11:36:44.589Z,65.67
2023-05-20T11:37:41.063Z,65.31
2023-05-20T11:38:40.376Z,64.81
2023-05-20T11:39:40.519Z,64.41
2023-05-20T11:40:50.516Z,64.27
2023-05-20T11:41:40.829Z,63.89
2023-05-20T11:42:40.914Z,63.83
2023-05-20T11:43:41.034Z,63.81
2023-05-20T11:44:40.223Z,63.50
2023-05-20T11:45:40.552Z,63.88
2023-05-20T11:46:40.516Z,64.34
2023-05-20T11:47:40.596Z,64.74
2023-05-20T11:48:40.611Z,64.70
2023-05-20T11:49:40.661Z,64.40
2023-05-20T11:50:40.831Z,64.30
2023-05-20T11:51:40.941Z,64.58
2023-05-20T11:52:40.364Z,64.90
2023-05-20T11:53:40.280Z,65.09
2023-05-20T11:54:40.753Z,65.33
2023-05-20T11:55:41.045Z,65.41
2023-05-20T11:56:40.642Z,65.23
2023-05-20T11:57:40.829Z,65.08
2023-05-20T11:58:40.640Z,65.11
2023-05-20T11:59:45.765Z,65.25
2023-05-20T12:00:52.832Z,65.01
2023-05-20T12:01:40.487Z,64.81
2023-05-20T12:02:40.864Z,64.66
2023-05-20T12:03:41.633Z,64.80
2023-05-20T12:04:41.377Z,64.73
2023-05-20T12:05:40.675Z,64.54
2023-05-20T12:06:41.074Z,64.72
2023-05-20T12:07:40.034Z,64.70
2023-05-20T12:08:40.605Z,64.71
2023-05-20T12:09:40.922Z,64.52
2023-05-20T12:10:40.900Z,64.54
2023-05-20T12:11:41.164Z,64.59
2023-05-20T12:12:40.484Z,64.65
2023-05-20T12:13:51.499Z,64.51
2023-05-20T12:14:40.963Z,64.61
2023-05-20T12:15:40.680Z,64.59
2023-05-20T12:16:41.174Z,64.33
2023-05-20T12:17:40.658Z,64.05
2023-05-20T12:18:40.937Z,64.06
2023-05-20T12:19:57.886Z,64.05
2023-05-20T12:20:41.061Z,64.13
2023-05-20T12:21:54.514Z,64.26
2023-05-20T12:22:40.348Z,64.39
2023-05-20T12:23:40.830Z,64.43
2023-05-20T12:24:41.016Z,64.44
2023-05-20T12:25:40.136Z,64.39
2023-05-20T12:26:40.381Z,64.40
2023-05-20T12:27:40.535Z,64.16
2023-05-20T12:28:40.585Z,64.16
2023-05-20T12:29:40.623Z,64.30
2023-05-20T12:30:40.921Z,64.61
2023-05-20T12:31:41.122Z,64.56
2023-05-20T12:32:40.198Z,64.61
2023-05-20T12:33:40.657Z,64.58
2023-05-20T12:34:40.780Z,64.47
2023-05-20T12:35:41.131Z,64.24
2023-05-20T12:36:40.135Z,64.36
2023-05-20T12:37:40.566Z,64.34
2023-05-20T12:38:40.539Z,64.45
2023-05-20T12:39:40.455Z,64.44
2023-05-20T12:40:40.332Z,64.28
2023-05-20T12:41:45.557Z,64.10
2023-05-20T12:42:40.484Z,63.93
2023-05-20T12:43:40.801Z,63.95
2023-05-20T12:44:41.103Z,64.07
2023-05-20T12:45:40.706Z,63.97
2023-05-20T12:46:40.772Z,63.90
2023-05-20T12:47:40.974Z,63.99
2023-05-20T12:48:42.553Z,63.98
2023-05-20T12:49:40.598Z,63.92
2023-05-20T12:50:41.013Z,63.99
2023-05-20T12:51:40.481Z,64.09
2023-05-20T12:52:40.452Z,64.14
2023-05-20T12:53:40.708Z,64.19